US-0036 weather

Wharton Field
Mechanicsville, Virginia, United States

Public forecast

Using degrees Fahrenheit for public forecast. Weather courtesy of forecast.io.

Closest aviation weather report (METAR) to Wharton Field

Closest report is New Kent County Airport, 7.0 nm (13.0 km) SE. Retrieved UTC (0 seconds ago):

Closest aviation forecast (TAF) to Wharton Field

Closest forecast is Richmond International Airport, 7.2 nm (13.4 km) SW. Retrieved 2019-12-08 00:28 UTC (2 hours ago):

TAF KRIC 072326Z 0800/0824 00000KT P6SM SKC FM081700 14006KT P6SM SCT250